<?xml version='1.0' encoding='UTF-8'?>
<gpx xmlns="http://www.topografix.com/GPX/1/1" creator="www.balnam.be" version="1.1" xmlns:xsi="http://www.w3.org/2001/XMLSchema-instance" xsi:schemaLocation="http://www.topografix.com/GPX/1/1 http://www.topografix.com/GPX/1/1/gpx.xsd">
<trk>
<name>bolot2</name>
<cmt>r</cmt>
<desc>Ottignies Chemin n°2 Rue de Pinchart / Rue de Chapelle Saint-Lambert</desc>
<link href="https://chemins.be/ottignies/chemin/2"/><trkseg>
<trkpt lat="50.669790" lon="4.554969"><time>2026-05-03T00:52:05Z</time></trkpt>
<trkpt lat="50.671200" lon="4.550575"><time>2026-05-03T01:02:05Z</time></trkpt>
<trkpt lat="50.672896" lon="4.546436"><time>2026-05-03T01:12:05Z</time></trkpt>
<trkpt lat="50.674329" lon="4.543895"><time>2026-05-03T01:22:05Z</time></trkpt>
<trkpt lat="50.675121" lon="4.543304"><time>2026-05-03T01:32:05Z</time></trkpt>
</trkseg></trk>
<trk>
<name>bolot2</name>
<cmt>s</cmt>
<desc>Ottignies Chemin n°2 Rue de Pinchart / Rue de Chapelle Saint-Lambert</desc>
<link href="https://chemins.be/ottignies/chemin/2"/><trkseg>
<trkpt lat="50.675121" lon="4.543304"><time>2026-05-03T01:32:05Z</time></trkpt>
<trkpt lat="50.675582" lon="4.541636"><time>2026-05-03T01:42:05Z</time></trkpt>
</trkseg></trk>
<trk>
<name>bolot2</name>
<cmt>r</cmt>
<desc>Ottignies Chemin n°2 Rue de Pinchart / Rue de Chapelle Saint-Lambert</desc>
<link href="https://chemins.be/ottignies/chemin/2"/><trkseg>
<trkpt lat="50.675582" lon="4.541636"><time>2026-05-03T01:42:05Z</time></trkpt>
<trkpt lat="50.676428" lon="4.541328"><time>2026-05-03T01:52:05Z</time></trkpt>
<trkpt lat="50.676321" lon="4.540903"><time>2026-05-03T02:02:05Z</time></trkpt>
<trkpt lat="50.675629" lon="4.540250"><time>2026-05-03T02:12:05Z</time></trkpt>
<trkpt lat="50.675711" lon="4.539896"><time>2026-05-03T02:22:05Z</time></trkpt>
<trkpt lat="50.676027" lon="4.539894"><time>2026-05-03T02:32:05Z</time></trkpt>
<trkpt lat="50.676789" lon="4.540070"><time>2026-05-03T02:42:05Z</time></trkpt>
<trkpt lat="50.677104" lon="4.539972"><time>2026-05-03T02:52:05Z</time></trkpt>
<trkpt lat="50.678166" lon="4.538943"><time>2026-05-03T03:02:05Z</time></trkpt>
</trkseg></trk>
<trk>
<name>bolot2</name>
<cmt>q</cmt>
<desc>Ottignies Chemin n°2 Rue de Pinchart / Rue de Chapelle Saint-Lambert</desc>
<link href="https://chemins.be/ottignies/chemin/2"/><trkseg>
<trkpt lat="50.678166" lon="4.538943"><time>2026-05-03T03:02:05Z</time></trkpt>
<trkpt lat="50.678432" lon="4.538373"><time>2026-05-03T03:12:05Z</time></trkpt>
<trkpt lat="50.678563" lon="4.538110"><time>2026-05-03T03:22:05Z</time></trkpt>
<trkpt lat="50.679166" lon="4.537758"><time>2026-05-03T03:32:05Z</time></trkpt>
</trkseg></trk>
<trk>
<name>bolot2</name>
<cmt>r</cmt>
<desc>Ottignies Chemin n°2 Rue de Pinchart / Rue de Chapelle Saint-Lambert</desc>
<link href="https://chemins.be/ottignies/chemin/2"/><trkseg>
<trkpt lat="50.679166" lon="4.537758"><time>2026-05-03T03:32:05Z</time></trkpt>
<trkpt lat="50.679527" lon="4.537010"><time>2026-05-03T03:42:05Z</time></trkpt>
<trkpt lat="50.679305" lon="4.536091"><time>2026-05-03T03:52:05Z</time></trkpt>
</trkseg></trk>
<trk>
<name>bolot2</name>
<cmt>s</cmt>
<desc>Ottignies Chemin n°2 Rue de Pinchart / Rue de Chapelle Saint-Lambert</desc>
<link href="https://chemins.be/ottignies/chemin/2"/><trkseg>
<trkpt lat="50.679305" lon="4.536091"><time>2026-05-03T03:52:05Z</time></trkpt>
<trkpt lat="50.678910" lon="4.535708"><time>2026-05-03T04:02:05Z</time></trkpt>
<trkpt lat="50.678755" lon="4.534070"><time>2026-05-03T04:12:05Z</time></trkpt>
</trkseg></trk>
<trk>
<name>bolot2</name>
<cmt>r</cmt>
<desc>Ottignies Chemin n°2 Rue de Pinchart / Rue de Chapelle Saint-Lambert</desc>
<link href="https://chemins.be/ottignies/chemin/2"/><trkseg>
<trkpt lat="50.678755" lon="4.534070"><time>2026-05-03T04:12:05Z</time></trkpt>
<trkpt lat="50.679150" lon="4.530333"><time>2026-05-03T04:22:05Z</time></trkpt>
<trkpt lat="50.680011" lon="4.525241"><time>2026-05-03T04:32:05Z</time></trkpt>
<trkpt lat="50.681939" lon="4.514803"><time>2026-05-03T04:42:05Z</time></trkpt>
</trkseg>
</trk>
</gpx>